Aviation Digital Data Service (ADDS)

Output produced by METARs form (0424 UTC 24 September 2014)
found at http://aviationweather.gov/adds/metars/
 
KRUT 232320Z 2400/2424 13004KT P6SM BKN035 
     FM240500 13005KT P6SM SCT035 
     FM241400 16006KT P6SM SCT035 AMD LTD TO CLD VIS AND WIND